sensor_id;sensor_type;location;lat;lon;timestamp;pressure;altitude;pressure_sealevel;temperature;humidity
57234;BME280;43090;52.604;13.318;2023-05-12T00:01:42;101249.19;;;15.57;58.08
57234;BME280;43090;52.604;13.318;2023-05-12T00:04:09;101249.22;;;15.13;58.48
57234;BME280;43090;52.604;13.318;2023-05-12T00:06:36;101248.06;;;15.27;58.17
57234;BME280;43090;52.604;13.318;2023-05-12T00:09:02;101251.22;;;15.32;57.84
57234;BME280;43090;52.604;13.318;2023-05-12T00:11:29;101241.91;;;15.37;58.21
57234;BME280;43090;52.604;13.318;2023-05-12T00:13:55;101247.56;;;15.33;59.13
57234;BME280;43090;52.604;13.318;2023-05-12T00:16:22;101246.50;;;15.13;57.00
57234;BME280;43090;52.604;13.318;2023-05-12T00:18:48;101239.81;;;14.96;59.66
57234;BME280;43090;52.604;13.318;2023-05-12T00:21:15;101240.75;;;15.07;59.21
57234;BME280;43090;52.604;13.318;2023-05-12T00:23:41;101247.50;;;15.01;58.68
57234;BME280;43090;52.604;13.318;2023-05-12T00:26:08;101241.28;;;15.01;59.73
57234;BME280;43090;52.604;13.318;2023-05-12T00:28:34;101240.75;;;15.07;59.65
57234;BME280;43090;52.604;13.318;2023-05-12T00:31:01;101236.16;;;14.86;60.90
57234;BME280;43090;52.604;13.318;2023-05-12T00:33:29;101245.81;;;14.77;59.15
57234;BME280;43090;52.604;13.318;2023-05-12T00:35:56;101245.34;;;14.72;58.24
57234;BME280;43090;52.604;13.318;2023-05-12T00:38:22;101251.84;;;14.81;59.40
57234;BME280;43090;52.604;13.318;2023-05-12T00:40:49;101242.63;;;14.72;60.11
57234;BME280;43090;52.604;13.318;2023-05-12T00:43:15;101239.94;;;14.72;60.13
57234;BME280;43090;52.604;13.318;2023-05-12T00:45:42;101249.25;;;14.79;60.31
57234;BME280;43090;52.604;13.318;2023-05-12T00:48:09;101246.34;;;14.71;60.63
57234;BME280;43090;52.604;13.318;2023-05-12T00:50:36;101252.22;;;14.65;60.82
57234;BME280;43090;52.604;13.318;2023-05-12T00:53:02;101244.44;;;14.60;60.41
57234;BME280;43090;52.604;13.318;2023-05-12T00:55:29;101250.59;;;14.62;61.01
57234;BME280;43090;52.604;13.318;2023-05-12T00:57:56;101250.59;;;14.62;61.21
57234;BME280;43090;52.604;13.318;2023-05-12T01:00:23;101251.69;;;14.60;60.98
57234;BME280;43090;52.604;13.318;2023-05-12T01:02:49;101258.44;;;14.54;61.15
57234;BME280;43090;52.604;13.318;2023-05-12T01:05:16;101255.75;;;14.54;60.69
57234;BME280;43090;52.604;13.318;2023-05-12T01:07:42;101249.50;;;14.42;60.87
57234;BME280;43090;52.604;13.318;2023-05-12T01:10:19;101249.56;;;14.18;60.28
57234;BME280;43090;52.604;13.318;2023-05-12T01:12:46;101257.69;;;14.29;60.86
57234;BME280;43090;52.604;13.318;2023-05-12T01:15:18;101251.28;;;14.19;61.79
57234;BME280;43090;52.604;13.318;2023-05-12T01:17:52;101255.97;;;14.17;61.77
57234;BME280;43090;52.604;13.318;2023-05-12T01:20:21;101258.88;;;14.14;62.43
57234;BME280;43090;52.604;13.318;2023-05-12T01:22:49;101254.97;;;14.18;62.41
57234;BME280;43090;52.604;13.318;2023-05-12T01:25:16;101263.78;;;14.20;62.45
57234;BME280;43090;52.604;13.318;2023-05-12T01:27:44;101254.31;;;13.92;62.88
57234;BME280;43090;52.604;13.318;2023-05-12T01:30:14;101255.28;;;14.02;62.21
57234;BME280;43090;52.604;13.318;2023-05-12T01:32:41;101258.66;;;14.17;62.48
57234;BME280;43090;52.604;13.318;2023-05-12T01:35:08;101257.28;;;14.11;62.42
57234;BME280;43090;52.604;13.318;2023-05-12T01:51:41;101258.13;;;13.16;65.28
57234;BME280;43090;52.604;13.318;2023-05-12T01:54:08;101252.31;;;13.47;64.57
57234;BME280;43090;52.604;13.318;2023-05-12T01:56:35;101255.69;;;13.62;64.25
57234;BME280;43090;52.604;13.318;2023-05-12T01:59:01;101261.75;;;13.88;63.39
57234;BME280;43090;52.604;13.318;2023-05-12T02:01:28;101251.91;;;13.64;63.94
57234;BME280;43090;52.604;13.318;2023-05-12T02:03:55;101249.97;;;13.78;63.52
57234;BME280;43090;52.604;13.318;2023-05-12T02:06:21;101269.22;;;13.85;64.25
57234;BME280;43090;52.604;13.318;2023-05-12T02:08:48;101263.81;;;13.85;63.28
57234;BME280;43090;52.604;13.318;2023-05-12T02:11:15;101278.16;;;13.96;62.22
57234;BME280;43090;52.604;13.318;2023-05-12T02:13:42;101271.25;;;13.81;63.34
57234;BME280;43090;52.604;13.318;2023-05-12T02:16:10;101268.13;;;13.87;62.70
57234;BME280;43090;52.604;13.318;2023-05-12T02:18:44;101269.97;;;13.87;63.21
57234;BME280;43090;52.604;13.318;2023-05-12T02:21:11;101281.13;;;13.93;62.32
57234;BME280;43090;52.604;13.318;2023-05-12T02:23:39;101250.94;;;13.77;62.67
57234;BME280;43090;52.604;13.318;2023-05-12T02:26:06;101273.53;;;13.63;62.92
57234;BME280;43090;52.604;13.318;2023-05-12T02:28:33;101277.25;;;13.73;62.81
57234;BME280;43090;52.604;13.318;2023-05-12T02:30:59;101284.97;;;13.78;63.15
57234;BME280;43090;52.604;13.318;2023-05-12T02:33:25;101287.72;;;13.65;62.60
57234;BME280;43090;52.604;13.318;2023-05-12T02:35:52;101284.44;;;13.61;63.40
57234;BME280;43090;52.604;13.318;2023-05-12T02:38:18;101276.84;;;13.66;63.68
57234;BME280;43090;52.604;13.318;2023-05-12T02:40:45;101276.56;;;13.58;62.82
57234;BME280;43090;52.604;13.318;2023-05-12T02:43:12;101288.47;;;13.67;63.16
57234;BME280;43090;52.604;13.318;2023-05-12T02:45:39;101283.59;;;13.72;62.55
57234;BME280;43090;52.604;13.318;2023-05-12T02:48:06;101279.63;;;13.54;63.12
57234;BME280;43090;52.604;13.318;2023-05-12T02:50:33;101291.97;;;13.56;63.54
57234;BME280;43090;52.604;13.318;2023-05-12T02:52:59;101277.63;;;13.44;63.90
57234;BME280;43090;52.604;13.318;2023-05-12T02:55:26;101269.88;;;13.27;63.42
57234;BME280;43090;52.604;13.318;2023-05-12T02:57:55;101284.72;;;13.32;63.42
57234;BME280;43090;52.604;13.318;2023-05-12T03:00:22;101275.38;;;13.25;64.17
57234;BME280;43090;52.604;13.318;2023-05-12T03:02:49;101275.78;;;13.08;64.05
57234;BME280;43090;52.604;13.318;2023-05-12T03:05:15;101285.84;;;13.17;64.80
57234;BME280;43090;52.604;13.318;2023-05-12T03:07:42;101268.75;;;13.18;64.46
57234;BME280;43090;52.604;13.318;2023-05-12T03:10:09;101273.22;;;13.06;64.64
57234;BME280;43090;52.604;13.318;2023-05-12T03:12:44;101269.97;;;13.14;64.49
57234;BME280;43090;52.604;13.318;2023-05-12T03:15:11;101290.78;;;13.23;64.17
57234;BME280;43090;52.604;13.318;2023-05-12T03:17:38;101273.09;;;13.08;63.62
57234;BME280;43090;52.604;13.318;2023-05-12T03:20:05;101282.09;;;13.20;64.22
57234;BME280;43090;52.604;13.318;2023-05-12T03:22:32;101284.88;;;12.94;64.44
57234;BME280;43090;52.604;13.318;2023-05-12T03:24:59;101284.34;;;12.89;64.15
57234;BME280;43090;52.604;13.318;2023-05-12T03:27:25;101286.66;;;13.06;63.63
57234;BME280;43090;52.604;13.318;2023-05-12T03:29:52;101288.28;;;12.96;64.23
57234;BME280;43090;52.604;13.318;2023-05-12T03:32:18;101271.22;;;12.84;64.46
57234;BME280;43090;52.604;13.318;2023-05-12T03:34:45;101299.44;;;13.03;64.57
57234;BME280;43090;52.604;13.318;2023-05-12T03:37:11;101294.22;;;12.88;64.50
57234;BME280;43090;52.604;13.318;2023-05-12T03:39:38;101294.31;;;12.87;64.91
57234;BME280;43090;52.604;13.318;2023-05-12T03:42:05;101281.66;;;12.76;64.26
57234;BME280;43090;52.604;13.318;2023-05-12T03:44:31;101303.16;;;12.76;65.11
57234;BME280;43090;52.604;13.318;2023-05-12T03:46:58;101303.16;;;12.76;65.41
57234;BME280;43090;52.604;13.318;2023-05-12T03:49:24;101302.31;;;12.49;65.40
57234;BME280;43090;52.604;13.318;2023-05-12T03:51:51;101298.97;;;12.72;64.81
57234;BME280;43090;52.604;13.318;2023-05-12T03:54:17;101303.09;;;12.52;66.68
57234;BME280;43090;52.604;13.318;2023-05-12T03:56:44;101307.47;;;12.65;65.99
57234;BME280;43090;52.604;13.318;2023-05-12T03:59:10;101298.31;;;12.68;66.33
57234;BME280;43090;52.604;13.318;2023-05-12T04:01:37;101300.41;;;12.52;66.30
57234;BME280;43090;52.604;13.318;2023-05-12T04:04:04;101288.78;;;12.64;65.56
57234;BME280;43090;52.604;13.318;2023-05-12T04:06:31;101315.41;;;12.67;65.91
57234;BME280;43090;52.604;13.318;2023-05-12T04:08:57;101315.28;;;12.69;65.65
57234;BME280;43090;52.604;13.318;2023-05-12T04:11:24;101304.34;;;12.59;66.20
57234;BME280;43090;52.604;13.318;2023-05-12T04:13:50;101302.63;;;12.71;66.06
57234;BME280;43090;52.604;13.318;2023-05-12T04:16:17;101310.06;;;12.54;66.40
57234;BME280;43090;52.604;13.318;2023-05-12T04:18:43;101307.69;;;12.49;66.74
57234;BME280;43090;52.604;13.318;2023-05-12T04:21:10;101318.84;;;12.56;67.04
57234;BME280;43090;52.604;13.318;2023-05-12T04:23:37;101311.13;;;12.52;66.58
57234;BME280;43090;52.604;13.318;2023-05-12T04:26:03;101298.13;;;12.58;66.24
57234;BME280;43090;52.604;13.318;2023-05-12T04:28:30;101313.06;;;12.62;66.66
57234;BME280;43090;52.604;13.318;2023-05-12T04:31:01;101313.06;;;12.62;66.68
57234;BME280;43090;52.604;13.318;2023-05-12T04:33:29;101320.03;;;12.52;66.76
57234;BME280;43090;52.604;13.318;2023-05-12T04:35:56;101322.75;;;12.65;67.20
57234;BME280;43090;52.604;13.318;2023-05-12T04:38:23;101309.19;;;12.66;66.99
57234;BME280;43090;52.604;13.318;2023-05-12T04:40:50;101314.03;;;12.61;67.37
57234;BME280;43090;52.604;13.318;2023-05-12T04:43:16;101331.44;;;12.56;67.48
57234;BME280;43090;52.604;13.318;2023-05-12T04:45:45;101329.19;;;12.62;67.95
57234;BME280;43090;52.604;13.318;2023-05-12T04:48:12;101321.31;;;12.59;67.17
57234;BME280;43090;52.604;13.318;2023-05-12T04:50:39;101335.94;;;12.81;67.44
57234;BME280;43090;52.604;13.318;2023-05-12T04:53:05;101340.53;;;12.66;67.58
57234;BME280;43090;52.604;13.318;2023-05-12T04:55:32;101322.63;;;12.66;68.04
57234;BME280;43090;52.604;13.318;2023-05-12T04:57:59;101341.50;;;12.91;67.82
57234;BME280;43090;52.604;13.318;2023-05-12T05:00:25;101354.28;;;12.87;67.97
57234;BME280;43090;52.604;13.318;2023-05-12T05:02:52;101340.66;;;12.90;67.00
57234;BME280;43090;52.604;13.318;2023-05-12T05:05:18;101347.94;;;13.01;67.43
57234;BME280;43090;52.604;13.318;2023-05-12T05:07:45;101329.59;;;12.82;65.17
57234;BME280;43090;52.604;13.318;2023-05-12T05:10:12;101327.75;;;12.95;64.17
57234;BME280;43090;52.604;13.318;2023-05-12T05:12:38;101307.28;;;13.06;64.56
57234;BME280;43090;52.604;13.318;2023-05-12T05:15:05;101354.22;;;13.39;64.44
57234;BME280;43090;52.604;13.318;2023-05-12T05:17:45;101347.94;;;13.14;64.67
57234;BME280;43090;52.604;13.318;2023-05-12T05:20:15;101352.69;;;12.97;61.86
57234;BME280;43090;52.604;13.318;2023-05-12T05:22:42;101331.84;;;13.38;63.13
57234;BME280;43090;52.604;13.318;2023-05-12T05:25:09;101360.84;;;13.59;64.75
57234;BME280;43090;52.604;13.318;2023-05-12T05:27:36;101358.97;;;13.72;65.47
57234;BME280;43090;52.604;13.318;2023-05-12T05:30:06;101355.50;;;13.70;66.03
57234;BME280;43090;52.604;13.318;2023-05-12T05:32:34;101356.47;;;13.69;64.21
57234;BME280;43090;52.604;13.318;2023-05-12T05:35:02;101361.13;;;13.67;64.23
57234;BME280;43090;52.604;13.318;2023-05-12T05:37:29;101361.56;;;13.85;64.22
57234;BME280;43090;52.604;13.318;2023-05-12T05:39:55;101350.47;;;13.65;62.08
57234;BME280;43090;52.604;13.318;2023-05-12T05:42:22;101369.81;;;13.95;62.31
57234;BME280;43090;52.604;13.318;2023-05-12T05:44:48;101357.44;;;13.92;63.93
57234;BME280;43090;52.604;13.318;2023-05-12T05:47:15;101352.00;;;14.05;62.74
57234;BME280;43090;52.604;13.318;2023-05-12T05:49:41;101345.59;;;13.95;59.35
57234;BME280;43090;52.604;13.318;2023-05-12T05:52:08;101371.50;;;14.20;60.67
57234;BME280;43090;52.604;13.318;2023-05-12T05:58:22;101376.06;;;14.20;60.07
57234;BME280;43090;52.604;13.318;2023-05-12T06:00:58;101375.59;;;14.37;59.94
57234;BME280;43090;52.604;13.318;2023-05-12T06:03:25;101379.91;;;14.40;60.76
57234;BME280;43090;52.604;13.318;2023-05-12T06:05:52;101371.31;;;14.46;59.75
57234;BME280;43090;52.604;13.318;2023-05-12T06:08:19;101375.94;;;14.68;58.48
57234;BME280;43090;52.604;13.318;2023-05-12T06:10:45;101385.38;;;14.85;59.81
57234;BME280;43090;52.604;13.318;2023-05-12T06:13:12;101367.81;;;14.57;58.75
57234;BME280;43090;52.604;13.318;2023-05-12T06:15:41;101379.50;;;15.03;56.56
57234;BME280;43090;52.604;13.318;2023-05-12T06:18:07;101359.41;;;14.84;54.79
57234;BME280;43090;52.604;13.318;2023-05-12T06:20:34;101348.75;;;14.71;55.83
57234;BME280;43090;52.604;13.318;2023-05-12T06:23:01;101369.09;;;15.21;56.60
57234;BME280;43090;52.604;13.318;2023-05-12T06:25:27;101383.44;;;14.98;57.04
57234;BME280;43090;52.604;13.318;2023-05-12T06:27:54;101379.75;;;14.99;59.35
57234;BME280;43090;52.604;13.318;2023-05-12T06:30:21;101370.91;;;14.97;58.16
57234;BME280;43090;52.604;13.318;2023-05-12T06:32:48;101395.91;;;15.56;57.50
57234;BME280;43090;52.604;13.318;2023-05-12T06:35:15;101357.81;;;15.27;53.70
57234;BME280;43090;52.604;13.318;2023-05-12T06:37:42;101392.22;;;15.46;53.58
57234;BME280;43090;52.604;13.318;2023-05-12T06:40:10;101388.78;;;15.66;52.69
57234;BME280;43090;52.604;13.318;2023-05-12T06:42:36;101401.53;;;15.64;53.82
57234;BME280;43090;52.604;13.318;2023-05-12T06:45:03;101386.16;;;15.88;50.25
57234;BME280;43090;52.604;13.318;2023-05-12T06:47:31;101391.38;;;16.01;50.15
57234;BME280;43090;52.604;13.318;2023-05-12T06:49:57;101402.91;;;16.03;50.67
57234;BME280;43090;52.604;13.318;2023-05-12T06:52:24;101381.47;;;16.22;50.62
57234;BME280;43090;52.604;13.318;2023-05-12T06:54:52;101399.19;;;16.15;53.56
57234;BME280;43090;52.604;13.318;2023-05-12T07:01:00;101401.56;;;16.93;53.09
57234;BME280;43090;52.604;13.318;2023-05-12T07:03:40;101405.78;;;17.07;48.73
57234;BME280;43090;52.604;13.318;2023-05-12T07:06:07;101397.09;;;17.13;45.86
57234;BME280;43090;52.604;13.318;2023-05-12T07:08:34;101397.31;;;17.31;45.90
57234;BME280;43090;52.604;13.318;2023-05-12T07:11:00;101379.31;;;17.71;44.87
57234;BME280;43090;52.604;13.318;2023-05-12T07:13:27;101407.03;;;17.43;47.65
57234;BME280;43090;52.604;13.318;2023-05-12T07:15:54;101388.75;;;17.16;50.57
57234;BME280;43090;52.604;13.318;2023-05-12T07:18:20;101392.56;;;17.74;46.94
57234;BME280;43090;52.604;13.318;2023-05-12T07:20:52;101374.66;;;18.12;49.98
57234;BME280;43090;52.604;13.318;2023-05-12T07:23:43;101399.06;;;18.22;46.40
57234;BME280;43090;52.604;13.318;2023-05-12T07:26:38;101393.34;;;18.15;43.47
57234;BME280;43090;52.604;13.318;2023-05-12T07:29:26;101372.97;;;18.21;45.77
57234;BME280;43090;52.604;13.318;2023-05-12T07:31:52;101391.50;;;18.06;49.37
57234;BME280;43090;52.604;13.318;2023-05-12T07:34:22;101401.41;;;18.74;43.00
57234;BME280;43090;52.604;13.318;2023-05-12T07:36:54;101402.00;;;18.77;43.78
57234;BME280;43090;52.604;13.318;2023-05-12T07:39:21;101404.44;;;19.46;42.20
57234;BME280;43090;52.604;13.318;2023-05-12T07:41:51;101403.06;;;19.04;45.45
57234;BME280;43090;52.604;13.318;2023-05-12T07:44:26;101377.88;;;19.68;43.12
57234;BME280;43090;52.604;13.318;2023-05-12T07:46:53;101383.75;;;21.06;39.90
57234;BME280;43090;52.604;13.318;2023-05-12T07:52:54;101406.75;;;19.96;41.32
57234;BME280;43090;52.604;13.318;2023-05-12T07:55:21;101361.75;;;20.02;42.78
57234;BME280;43090;52.604;13.318;2023-05-12T07:57:51;101387.47;;;20.26;42.39
57234;BME280;43090;52.604;13.318;2023-05-12T08:00:18;101375.03;;;20.23;40.65
57234;BME280;43090;52.604;13.318;2023-05-12T08:02:45;101384.44;;;20.11;43.62
57234;BME280;43090;52.604;13.318;2023-05-12T08:05:13;101393.19;;;20.41;40.91
57234;BME280;43090;52.604;13.318;2023-05-12T08:07:40;101373.81;;;20.00;42.42
57234;BME280;43090;52.604;13.318;2023-05-12T08:10:10;101397.63;;;19.88;43.06
57234;BME280;43090;52.604;13.318;2023-05-12T08:12:44;101398.16;;;20.27;42.75
57234;BME280;43090;52.604;13.318;2023-05-12T08:15:18;101404.22;;;19.85;41.73
57234;BME280;43090;52.604;13.318;2023-05-12T08:17:48;101395.09;;;19.58;39.42
57234;BME280;43090;52.604;13.318;2023-05-12T08:20:16;101379.47;;;19.42;41.55
57234;BME280;43090;52.604;13.318;2023-05-12T08:22:43;101409.22;;;20.26;38.67
57234;BME280;43090;52.604;13.318;2023-05-12T08:25:09;101401.84;;;19.82;41.34
57234;BME280;43090;52.604;13.318;2023-05-12T08:27:38;101392.38;;;19.76;42.22
57234;BME280;43090;52.604;13.318;2023-05-12T08:30:04;101400.84;;;19.73;39.74
57234;BME280;43090;52.604;13.318;2023-05-12T08:32:31;101385.53;;;19.54;40.46
57234;BME280;43090;52.604;13.318;2023-05-12T08:34:59;101398.88;;;19.65;38.63
57234;BME280;43090;52.604;13.318;2023-05-12T08:37:25;101407.41;;;19.98;43.15
57234;BME280;43090;52.604;13.318;2023-05-12T08:39:52;101391.97;;;19.99;38.39
57234;BME280;43090;52.604;13.318;2023-05-12T08:44:48;101407.66;;;20.68;36.51
57234;BME280;43090;52.604;13.318;2023-05-12T08:47:17;101405.25;;;20.20;36.08
57234;BME280;43090;52.604;13.318;2023-05-12T08:49:48;101414.88;;;20.33;39.52
57234;BME280;43090;52.604;13.318;2023-05-12T08:52:19;101399.47;;;20.86;36.48
57234;BME280;43090;52.604;13.318;2023-05-12T08:54:53;101408.13;;;20.81;34.73
57234;BME280;43090;52.604;13.318;2023-05-12T08:57:22;101399.00;;;20.90;34.63
57234;BME280;43090;52.604;13.318;2023-05-12T08:59:49;101409.44;;;20.77;39.11
57234;BME280;43090;52.604;13.318;2023-05-12T09:02:20;101395.44;;;20.27;36.21
57234;BME280;43090;52.604;13.318;2023-05-12T09:04:49;101395.31;;;20.55;34.67
57234;BME280;43090;52.604;13.318;2023-05-12T09:07:20;101356.31;;;20.20;37.91
57234;BME280;43090;52.604;13.318;2023-05-12T09:09:55;101384.88;;;20.69;34.58
57234;BME280;43090;52.604;13.318;2023-05-12T09:12:24;101379.50;;;20.51;35.14
57234;BME280;43090;52.604;13.318;2023-05-12T09:14:59;101392.25;;;20.32;36.42
57234;BME280;43090;52.604;13.318;2023-05-12T09:17:28;101387.41;;;20.44;32.96
57234;BME280;43090;52.604;13.318;2023-05-12T09:19:54;101384.78;;;20.52;36.12
57234;BME280;43090;52.604;13.318;2023-05-12T09:22:28;101380.84;;;20.28;32.83
57234;BME280;43090;52.604;13.318;2023-05-12T09:24:55;101382.03;;;20.26;37.13
57234;BME280;43090;52.604;13.318;2023-05-12T09:27:26;101403.09;;;20.50;37.02
57234;BME280;43090;52.604;13.318;2023-05-12T09:29:53;101386.41;;;20.45;30.74
57234;BME280;43090;52.604;13.318;2023-05-12T09:32:32;101391.09;;;20.61;35.92
57234;BME280;43090;52.604;13.318;2023-05-12T09:35:09;101392.34;;;20.93;31.28
57234;BME280;43090;52.604;13.318;2023-05-12T09:37:39;101399.59;;;20.58;36.02
57234;BME280;43090;52.604;13.318;2023-05-12T09:40:06;101412.97;;;20.51;30.64
57234;BME280;43090;52.604;13.318;2023-05-12T09:42:34;101405.81;;;20.50;34.89
57234;BME280;43090;52.604;13.318;2023-05-12T09:45:05;101384.41;;;20.47;34.11
57234;BME280;43090;52.604;13.318;2023-05-12T09:47:39;101389.44;;;20.86;34.13
57234;BME280;43090;52.604;13.318;2023-05-12T09:50:07;101394.84;;;21.12;30.33
57234;BME280;43090;52.604;13.318;2023-05-12T09:52:38;101385.47;;;20.54;32.78
57234;BME280;43090;52.604;13.318;2023-05-12T09:55:09;101400.97;;;20.62;33.84
57234;BME280;43090;52.604;13.318;2023-05-12T09:57:43;101379.59;;;20.41;32.77
57234;BME280;43090;52.604;13.318;2023-05-12T10:00:13;101395.75;;;20.69;34.93
57234;BME280;43090;52.604;13.318;2023-05-12T10:03:00;101390.06;;;20.54;32.35
57234;BME280;43090;52.604;13.318;2023-05-12T10:05:29;101376.94;;;20.75;34.78
57234;BME280;43090;52.604;13.318;2023-05-12T10:07:59;101393.66;;;20.80;32.46
57234;BME280;43090;52.604;13.318;2023-05-12T10:10:27;101390.31;;;20.87;36.01
57234;BME280;43090;52.604;13.318;2023-05-12T10:12:53;101394.56;;;20.89;34.25
57234;BME280;43090;52.604;13.318;2023-05-12T10:15:21;101385.09;;;21.02;34.77
57234;BME280;43090;52.604;13.318;2023-05-12T10:17:49;101377.72;;;20.68;32.60
57234;BME280;43090;52.604;13.318;2023-05-12T10:20:19;101347.06;;;20.84;30.87
57234;BME280;43090;52.604;13.318;2023-05-12T10:22:53;101384.84;;;20.87;35.03
57234;BME280;43090;52.604;13.318;2023-05-12T10:25:19;101393.28;;;21.02;33.46
57234;BME280;43090;52.604;13.318;2023-05-12T10:27:47;101383.00;;;20.95;35.25
57234;BME280;43090;52.604;13.318;2023-05-12T10:30:14;101384.31;;;21.18;34.56
57234;BME280;43090;52.604;13.318;2023-05-12T10:32:41;101373.25;;;21.19;31.89
57234;BME280;43090;52.604;13.318;2023-05-12T10:35:09;101383.53;;;21.34;33.05
57234;BME280;43090;52.604;13.318;2023-05-12T10:37:38;101365.41;;;21.08;30.39
57234;BME280;43090;52.604;13.318;2023-05-12T10:40:05;101380.38;;;21.12;31.43
57234;BME280;43090;52.604;13.318;2023-05-12T10:42:41;101380.63;;;21.27;30.80
57234;BME280;43090;52.604;13.318;2023-05-12T10:45:17;101383.72;;;21.32;32.16
57234;BME280;43090;52.604;13.318;2023-05-12T10:47:45;101366.97;;;21.61;31.62
57234;BME280;43090;52.604;13.318;2023-05-12T10:50:12;101363.13;;;21.38;33.66
57234;BME280;43090;52.604;13.318;2023-05-12T10:52:59;101361.50;;;21.61;30.65
57234;BME280;43090;52.604;13.318;2023-05-12T10:55:41;101369.50;;;21.55;33.23
57234;BME280;43090;52.604;13.318;2023-05-12T10:58:09;101368.69;;;21.62;31.17
57234;BME280;43090;52.604;13.318;2023-05-12T11:00:46;101361.03;;;21.58;32.40
57234;BME280;43090;52.604;13.318;2023-05-12T11:03:22;101358.06;;;21.51;31.97
57234;BME280;43090;52.604;13.318;2023-05-12T11:06:04;101348.19;;;21.50;33.23
57234;BME280;43090;52.604;13.318;2023-05-12T11:08:32;101344.75;;;21.40;32.27
57234;BME280;43090;52.604;13.318;2023-05-12T11:11:01;101355.22;;;21.61;32.96
57234;BME280;43090;52.604;13.318;2023-05-12T11:13:28;101356.44;;;21.75;31.18
57234;BME280;43090;52.604;13.318;2023-05-12T11:15:55;101355.94;;;21.96;29.41
57234;BME280;43090;52.604;13.318;2023-05-12T11:18:22;101361.91;;;22.00;28.24
57234;BME280;43090;52.604;13.318;2023-05-12T11:20:49;101357.31;;;21.75;31.46
57234;BME280;43090;52.604;13.318;2023-05-12T11:23:26;101364.78;;;21.73;34.07
57234;BME280;43090;52.604;13.318;2023-05-12T11:26:05;101341.59;;;21.69;31.52
57234;BME280;43090;52.604;13.318;2023-05-12T11:28:39;101316.94;;;21.87;30.45
57234;BME280;43090;52.604;13.318;2023-05-12T11:31:20;101367.38;;;21.91;30.71
57234;BME280;43090;52.604;13.318;2023-05-12T11:33:48;101366.16;;;21.77;31.17
57234;BME280;43090;52.604;13.318;2023-05-12T11:36:27;101360.03;;;21.92;30.53
57234;BME280;43090;52.604;13.318;2023-05-12T11:38:53;101345.69;;;21.65;29.32
57234;BME280;43090;52.604;13.318;2023-05-12T11:41:24;101354.56;;;21.67;32.93
57234;BME280;43090;52.604;13.318;2023-05-12T11:43:51;101361.75;;;21.76;32.70
57234;BME280;43090;52.604;13.318;2023-05-12T11:48:57;101363.28;;;21.79;29.35
57234;BME280;43090;52.604;13.318;2023-05-12T11:51:25;101366.00;;;21.87;29.53
57234;BME280;43090;52.604;13.318;2023-05-12T11:53:52;101365.31;;;21.93;31.98
57234;BME280;43090;52.604;13.318;2023-05-12T11:56:21;101353.41;;;22.11;29.68
57234;BME280;43090;52.604;13.318;2023-05-12T11:58:53;101371.97;;;21.91;34.55
57234;BME280;43090;52.604;13.318;2023-05-12T12:01:21;101370.09;;;22.08;31.83
57234;BME280;43090;52.604;13.318;2023-05-12T12:03:49;101349.97;;;21.84;31.79
57234;BME280;43090;52.604;13.318;2023-05-12T12:06:17;101357.31;;;21.92;30.92
57234;BME280;43090;52.604;13.318;2023-05-12T12:08:58;101356.81;;;21.88;33.25
57234;BME280;43090;52.604;13.318;2023-05-12T12:11:25;101376.75;;;22.22;30.96
57234;BME280;43090;52.604;13.318;2023-05-12T12:13:56;101339.44;;;22.14;30.58
57234;BME280;43090;52.604;13.318;2023-05-12T12:16:27;101359.19;;;22.24;33.04
57234;BME280;43090;52.604;13.318;2023-05-12T12:18:54;101368.72;;;22.12;32.89
57234;BME280;43090;52.604;13.318;2023-05-12T12:21:25;101364.81;;;21.98;31.51
57234;BME280;43090;52.604;13.318;2023-05-12T12:23:51;101377.25;;;22.17;34.03
57234;BME280;43090;52.604;13.318;2023-05-12T12:26:18;101366.72;;;22.30;30.95
57234;BME280;43090;52.604;13.318;2023-05-12T12:28:58;101373.16;;;22.54;28.92
57234;BME280;43090;52.604;13.318;2023-05-12T12:31:24;101375.91;;;22.29;28.85
57234;BME280;43090;52.604;13.318;2023-05-12T12:33:51;101373.38;;;22.44;29.80
57234;BME280;43090;52.604;13.318;2023-05-12T12:36:18;101367.41;;;22.16;30.45
57234;BME280;43090;52.604;13.318;2023-05-12T12:38:44;101364.97;;;22.21;30.18
57234;BME280;43090;52.604;13.318;2023-05-12T12:41:11;101351.34;;;22.13;31.83
57234;BME280;43090;52.604;13.318;2023-05-12T12:43:38;101362.78;;;22.08;30.78
57234;BME280;43090;52.604;13.318;2023-05-12T12:46:04;101359.38;;;22.39;32.25
57234;BME280;43090;52.604;13.318;2023-05-12T12:48:31;101370.78;;;22.10;32.16
57234;BME280;43090;52.604;13.318;2023-05-12T12:50:59;101356.13;;;22.03;32.30
57234;BME280;43090;52.604;13.318;2023-05-12T12:53:26;101368.25;;;22.08;31.78
57234;BME280;43090;52.604;13.318;2023-05-12T12:55:53;101371.66;;;22.43;29.88
57234;BME280;43090;52.604;13.318;2023-05-12T12:58:19;101356.28;;;22.34;33.23
57234;BME280;43090;52.604;13.318;2023-05-12T13:00:46;101367.72;;;22.29;31.26
57234;BME280;43090;52.604;13.318;2023-05-12T13:03:12;101354.38;;;22.76;31.23
57234;BME280;43090;52.604;13.318;2023-05-12T13:05:39;101354.16;;;22.86;30.05
57234;BME280;43090;52.604;13.318;2023-05-12T13:08:16;101358.97;;;22.75;30.46
57234;BME280;43090;52.604;13.318;2023-05-12T13:10:42;101347.31;;;22.98;28.01
57234;BME280;43090;52.604;13.318;2023-05-12T13:13:09;101359.78;;;23.01;29.06
57234;BME280;43090;52.604;13.318;2023-05-12T13:15:42;101341.97;;;22.65;33.75
57234;BME280;43090;52.604;13.318;2023-05-12T13:18:08;101350.28;;;22.80;29.40